Bookmark and Share
Track history (hours):
 

Tk Rotterdam

Last reported at 2014-Apr-24 10:33 UTC. Time now 2014-Apr-24 11:01 UTC.
Position N 57°35' E 011°40'.

Length 130 m; draft 8.2 m.

Type: Cargo ship. MMSI: 636014098.

NotesDate/timePositionNaut miles runAvg speedWind from/ knotsBaromVisibWave heightAir tempDewpointWater temp
2014-Apr-24 10:33N 57°35' E 011°40'8 8.0
2014-Apr-24 09:33N 57°28' E 011°31'17510.3
2014-Apr-23 16:34N 54°34' E 011°19'1312.6
2014-Apr-23 15:34N 54°28' E 011°38'1211.7
2014-Apr-23 14:33N 54°26' E 011°58'1010.5
2014-Apr-23 13:33N 54°32' E 012°13'1111.0
2014-Apr-23 12:33N 54°41' E 012°25'2411.0
2014-Apr-23 10:22N 54°46' E 013°06'911.5
2014-Apr-23 09:32N 54°46' E 013°22'1110.9
2014-Apr-23 08:33N 54°45' E 013°41'1111.3
2014-Apr-23 07:33N 54°42' E 013°59'1211.7
2014-Apr-23 06:30N 54°38' E 014°20'5911.4
2014-Apr-23 01:19N 54°57' E 015°57'2211.8
2014-Apr-22 23:29N 55°04' E 016°33'2211.4
2014-Apr-22 21:32N 55°11' E 017°10'1611.4
2014-Apr-22 20:07N 55°15' E 017°37'711.6
2014-Apr-22 19:33N 55°17' E 017°48'1211.5
2014-Apr-22 18:30N 55°20' E 018°09'1511.7
2014-Apr-22 17:15N 55°24' E 018°34'811.8
2014-Apr-22 16:33N 55°26' E 018°48'1211.6
2014-Apr-22 15:31N 55°29' E 019°08'1111.6
2014-Apr-22 14:33N 55°32' E 019°27'1511.4
2014-Apr-22 13:13N 55°36' E 019°53'  
2014-Apr-19 22:33N 55°34' E 019°38'1312.3
2014-Apr-19 21:31N 55°30' E 019°17'1212.1
2014-Apr-19 20:32N 55°26' E 018°57'3611.9
2014-Apr-19 17:33N 55°16' E 017°57'11011.9
2014-Apr-19 08:19N 54°41' E 014°55'1012.4
2014-Apr-19 07:31N 54°38' E 014°39'1111.8
2014-Apr-19 06:33N 54°37' E 014°19'1212.2
2014-Apr-19 05:33N 54°40' E 013°59'1212.5
2014-Apr-19 04:33N 54°44' E 013°39'1312.9
2014-Apr-19 03:33N 54°45' E 013°16'1312.7
2014-Apr-19 02:33N 54°46' E 012°55'1212.3
2014-Apr-19 01:33N 54°41' E 012°35'1212.2
2014-Apr-19 00:33N 54°34' E 012°18'1211.7
2014-Apr-18 23:33N 54°24' E 012°07'1211.6
2014-Apr-18 22:33N 54°25' E 011°47'1111.1
2014-Apr-18 21:33N 54°29' E 011°30'1211.9
2014-Apr-18 20:33N 54°35' E 011°11'61 1.5
2014-Apr-17 04:31N 54°12' E 009°34'8 8.7
2014-Apr-17 03:33N 54°09' E 009°21'9 8.6
2014-Apr-17 02:33N 54°00' E 009°18'5 5.3
2014-Apr-17 01:33N 53°56' E 009°13'3 3.4
2014-Apr-17 00:33N 53°54' E 009°09'2 1.8
2014-Apr-16 23:33N 53°53' E 009°06'1 1.5
2014-Apr-16 22:33N 53°52' E 009°04'10 9.5
2014-Apr-16 21:33N 53°50' E 008°48'9 8.8
2014-Apr-16 20:34N 53°57' E 008°38'9 8.6
2014-Apr-16 19:34N 53°59' E 008°24'8 8.5
2014-Apr-16 18:33N 53°59' E 008°09'1010.2
2014-Apr-16 17:33N 53°58' E 007°52'1211.9
2014-Apr-16 16:34N 53°55' E 007°33'1111.4
2014-Apr-16 15:33N 53°52' E 007°14'1111.5
2014-Apr-16 14:33N 53°49' E 006°55'1211.7
2014-Apr-16 13:31N 53°47' E 006°35'1812.1
2014-Apr-16 12:05N 53°41' E 006°07'712.6
2014-Apr-16 11:34N 53°39' E 005°56'1312.9
2014-Apr-16 10:33N 53°35' E 005°36'1313.1
2014-Apr-16 09:33N 53°31' E 005°15'1413.6
2014-Apr-16 08:33N 53°26' E 004°53'1313.4
2014-Apr-16 07:34N 53°17' E 004°38'3711.3
2014-Apr-16 04:19N 52°45' E 004°07'7 9.7
2014-Apr-16 03:33N 52°40' E 003°59'1010.1
2014-Apr-16 02:33N 52°32' E 003°47'12 9.7
2014-Apr-16 01:21N 52°24' E 003°34'8 8.6
2014-Apr-16 00:24N 52°18' E 003°24'49 7.0
2014-Apr-15 17:21N 51°42' E 002°31'7 8.4
2014-Apr-15 16:32N 51°36' E 002°24'9 8.9
2014-Apr-15 15:31N 51°29' E 002°15'9 3.1
2014-Apr-15 12:34N 51°21' E 002°23'7 6.9
2014-Apr-15 11:34N 51°24' E 002°33'1 1.0
2014-Apr-15 10:31N 51°24' E 002°35'0 0.0
2014-Apr-15 09:34N 51°24' E 002°35'0 0.0
2014-Apr-15 08:31N 51°24' E 002°35'0 0.0
2014-Apr-15 05:31N 51°24' E 002°35'0 0.0
2014-Apr-15 03:33N 51°24' E 002°35'0 0.0
2014-Apr-15 02:29N 51°24' E 002°35'0 0.1
2014-Apr-15 01:32N 51°24' E 002°35'0 0.0
2014-Apr-15 00:31N 51°24' E 002°35'0 0.0
2014-Apr-14 23:30N 51°24' E 002°35'0 0.1
2014-Apr-14 22:34N 51°24' E 002°35'4 4.2
2014-Apr-14 21:34N 51°22' E 002°30'5 4.6
2014-Apr-14 20:34N 51°20' E 002°22'7 7.1
2014-Apr-14 19:34N 51°23' E 002°33'2 1.8
2014-Apr-14 18:33N 51°24' E 002°34'0 0.0
2014-Apr-14 17:32N 51°24' E 002°35'1 0.7
2014-Apr-14 16:34N 51°24' E 002°34'4 3.7
2014-Apr-14 15:34N 51°25' E 002°40'0 0.0
2014-Apr-14 14:33N 51°25' E 002°40'0 0.0
2014-Apr-14 13:32N 51°25' E 002°40'0 0.0
2014-Apr-14 11:31N 51°25' E 002°40'0 0.0
2014-Apr-14 10:34N 51°25' E 002°40'  

Dump ship's entire track history

sailing weather and tide predictions

Tk Rotterdam — A8RG8 — position and weather